MET: Información y Pronóstico Aeronáutico

///////////////////////////////////////////////////////////////////////////////////////////////////////////////////////////////////////////////////////////////////////////////////////////////////////////////////////////////////////////////

Member for

1 año 8 meses
Enviado por meteorologia el Jue, 23/11/2017 - 11:39
27/3

27 DE MARZO 2020

INFORMACION METEOROLOGICA AERONAUTICA (METAR) 12:00 UTC

 

Aeropuerto AEROPARQUE J. NEWBERY

27 - 12:00               METAR SABE 271200Z 02006KT 340V050 CAVOK 23/19 Q1014 NOSIG =

Aeropuerto BAHIA BLANCA

27 - 12:00               METAR SAZB 271200Z 36002KT 9999 OVC015 19/18 Q1013 =

Aeropuerto BARILOCHE

27 - 12:00               METAR SAZS 271200Z 29004KT 9999 FEW050 12/06 Q1011 =

Aeropuerto CATAMARCA

27 - 12:00               METAR SANC 271200Z 00000KT CAVOK 19/14 Q1012 =

Aeropuerto CHAPELCO

27 - 12:00               METAR SAZY 271200Z 15005KT CAVOK 12/09 Q1011 =

Aeropuerto COMODORO RIVADAVIA

27 - 12:00               METAR SAVC 271200Z 27006KT CAVOK 16/09 Q1006 =

Aeropuerto CORDOBA

27 - 12:03               METAR SACO 271200Z VRB01KT 2000 BR OVC009 16/16 Q1015 BECMG 02010KT 5000 BR SCT030 =

Aeropuerto CORRIENTES

27 - 12:00               METAR SARC 271200Z 20004KT 5000 BRFU NSC 22/20 Q1012 =

Aeropuerto EL CALAFATE

27 - 12:00               METAR SAWC 271200Z 09005KT 9999 FEW035 BKN070 BKN200 07/01 Q1003 =

Aeropuerto EL PALOMAR

27 - 12:00               METAR SADP 271200Z 36007KT 320V050 CAVOK 23/18 Q1014 =

Aeropuerto ESQUEL

27 - 12:00               METAR SAVE 271200Z 32003KT 9999 BKN038 10/03 Q1009 =

Aeropuerto EZEIZA

27 - 12:00               METAR SAEZ 271200Z 05007KT CAVOK 24/19 Q1014 NOSIG =

Aeropuerto FORMOSA

27 - 12:00               METAR SARF 271200Z 20002KT CAVOK 22/19 Q1011 =

Aeropuerto IGUAZU/CATARATAS

27 - 12:00               METAR SARI 271200Z 05008KT CAVOK 22/16 Q1014 =

Aeropuerto JUJUY

27 - 12:00               METAR SASJ 271200Z 00000KT 9999 SCT030 BKN100 18/16 Q1015 =

Aeropuerto LA RIOJA

27 - 11:00               METAR SANL 271100Z 20004KT CAVOK 17/15 Q1012 =

Aeropuerto MALARGUE

27 - 12:00               METAR SAMM 271200Z 23004KT CAVOK 11/04 Q1016 =

Aeropuerto MAR DEL PLATA

27 - 12:00               METAR SAZM 271200Z 01007KT 340V040 4000 BR OVC002 20/19 Q1015 =

Aeropuerto MENDOZA

27 - 12:00               METAR SAME 271200Z 36003KT CAVOK 16/13 Q1012 =

Aeropuerto MORON

27 - 12:00               METAR SADM 271200Z 36007KT CAVOK 24/19 Q1013 =

Aeropuerto NEUQUEN

27 - 12:00               METAR SAZN 271200Z 00000KT CAVOK 18/15 Q1009 =

Aeropuerto PARANA

27 - 12:00               METAR SAAP 271200Z 25007KT 6000 TSRA FEW009 FEW050CB OVC050 20/20 Q1015 =

Aeropuerto POSADAS

27 - 12:00               METAR SARP 271200Z 09006KT CAVOK 25/19 Q1013 =

Aeropuerto PUERTO MADRYN

27 - 12:00               METAR SAVY 271200Z 25004KT CAVOK 17/06 Q1006 =

Aeropuerto RECONQUISTA

27 - 12:00               METAR SATR 271200Z 20005KT 5000 -RA BR NSC 21/20 Q1012 =

Aeropuerto RESISTENCIA

27 - 12:00               METAR SARE 271200Z 24004KT 9999 SCT009 OVC120 21/21 Q1012 =

Aeropuerto RIO CUARTO

27 - 12:00               METAR SAOC 271200Z 36007KT CAVOK 18/17 Q1013 =

Aeropuerto RIO GALLEGOS

27 - 12:00               METAR SAWG 271200Z 25004KT CAVOK 04/01 Q1003 =

Aeropuerto RIO GRANDE

27 - 12:00               METAR SAWE 271200Z 29016KT CAVOK 03/00 Q0999 =

Aeropuerto ROSARIO

27 - 12:00               METAR SAAR 271200Z 05007KT 7000 -RA SCT028 BKN078 BKN200 21/19 Q1013 =

Aeropuerto SALTA

27 - 12:00               METAR SASA 271200Z 00000KT 9999 FEW004 BKN025 16/15 Q1016 =

Aeropuerto SAN FERNANDO

27 - 12:00               METAR SADF 271200Z 01006KT 9999 FEW035 SCT100 22/20 Q1014 =

Aeropuerto SAN JUAN

27 - 12:00               METAR SANU 271200Z 18003KT CAVOK 15/12 Q1012 =

Aeropuerto SAN LUIS

27 - 12:00               METAR SAOU 271200Z 05003KT CAVOK 18/13 Q1013 =

Aeropuerto SAN RAFAEL

27 - 12:00               METAR SAMR 271200Z 32002KT CAVOK 17/11 Q1012 =

Aeropuerto SANTA ROSA

27 - 12:00               METAR SAZR 271200Z 34006KT 4000 BR SCT008 BKN025 19/18 Q1012 =

Aeropuerto SANTIAGO DEL ESTERO

27 - 12:00               METAR SANE 271200Z 25002KT 6000-DZBR BKN008 OVC015 20/20 Q1013 =

Aeropuerto SAUCE VIEJO

27 - 12:00               METAR SAAV 271200Z 23006KT 80000 -RA BR SCT004 OVC050 21/19 Q1014 =

Aeropuerto TANDIL

27 - 12:00               METAR SAZT 271200Z 05004KT 3000 BR SCT005 18/18 Q1015 =

Aeropuerto TERMAS DE RIO HONDO

No se encontraron resultados

Aeropuerto TRELEW

27 - 12:00               METAR SAVT 271200Z 25003KT CAVOK 18/03 Q1006 =

Aeropuerto TUCUMAN

27 - 12:00               METAR SANT 271200Z 32004KT CAVOK 16/15 Q1013 =

Aeropuerto USHUAIA

27 - 12:00               METAR SAWH 271200Z 27009KT 9999 FEW040 SCT100 05/M02 Q0997 =

Aeropuerto VIEDMA

27 - 12:00               METAR SAVV 271200Z 34008KT 300V030 CAVOK 19/16 Q1009 =

Aeropuerto VILLA REYNOLDS

27 - 12:00               METAR SAOR 271200Z 00000KT CAVOK 15/13 Q1013 =

 

 PRONOSTICO DE AERODROMO (TAF) 11:00 UTC

 

Estación AEROPARQUE J. NEWBERY

27 - 11:00               TAF SABE 271100Z 2712/2812 03010KT CAVOK TX27/2719Z TN22/2810Z PROB40 TEMPO 2713/2718 8000 SHRA FEW040TCU BKN045 BECMG 2716/2718 09010KT =

Estación BAHIA BLANCA

27 - 11:00               TAF SAZB 271100Z 2712/2812 02005KT 9999 BKN025 TX29/2718Z TN18/2809Z BECMG 2715/2717 34015KT CAVOK BECMG 2800/2802 36010KT =

Estación BARILOCHE

27 - 11:00               TAF SAZS 271100Z 2712/2812 29015KT CAVOK TX18/2719Z TN06/2810Z BECMG 2714/2716 29015G25KT BECMG 2720/2723 29010KT SCT030 BKN100 =

Estación CATAMARCA

27 - 11:00               TAF SANC 271100Z 2712/2812 VRB03KT 9999 SCT045 TX30/2718Z TN18/2810Z BECMG 2718/2721 36015KT 9999 SCT045 BECMG 2800/2803 02010KT PROB40 TEMPO 2803/2806 5000 RADZ BKN012 BKN045 =

Estación CHAPELCO

27 - 11:00               TAF SAZY 271100Z 2712/2812 NIL =

Estación COMODORO RIVADAVIA

27 - 11:00               TAF SAVC 271100Z 2712/2812 VRB05KT CAVOK TX23/2719Z TN14/2810Z BECMG 2721/2723 27010G20KT 9999 FEW035 SCT070 =

Estación CORDOBA

27 - 11:00               TAF SACO 271100Z 2712/2812 VRB03KT 5000 BR SCT020 TX25/2718Z TN15/2810Z BECMG 2713/2716 02010KT 9999 NSW SCT030 PROB40 2716/2719 05010KT 5000 TSRA BKN020 BKN040 FEW045CB BECMG 2806/2809 36005KT 1500 BR BKN005 =

Estación CORRIENTES

27 - 11:00               TAF SARC 271100Z 2712/2812 16005KT 6000 FEW025 BKN090 TX28/2719Z TN19/2809Z BECMG 2715/2717 5000 RA SCT015 OVC050 PROB40 2717/2720 4000 TSRA BKN015 FEW050CB BKN050 BECMG 2722/2724 8000 -RA BKN012 OVC050 =

Estación EL CALAFATE

27 - 11:00               TAF SAWC 271100Z 2712/2812 14005KT 9999 FEW040 SCT060 TX10/2719Z TN02/2806Z TEMPO 2715/2719 09005KT -RA BKN030 OVC050 BECMG 2721/2723 VRB07KT FEW030 SCT090 BECMG 2803/2805 09005KT =

Estación EL PALOMAR

27 - 11:00               TAF SADP 271100Z 2712/2812 03005KT CAVOK TX27/2718Z TN21/2809Z PROB30 2714/2718 8000 SHRA FEW040TCU SCT050 BECMG 2719/2721 07015KT 9999 FEW030 SCT050 TEMPO 2802/2804 17008KT 8000 -RA FEW008 SCT020 BECMG 2808/2810 09010KT 9999 SCT030 BECMG 2810/2812 04010KT CAVOK =

Estación ESQUEL

27 - 11:00               TAF SAVE 271100Z 2712/2812 27005KT CAVOK TX18/2718Z TN05/2810Z BECMG 2715/2717 29015G25KT 9999 SCT030 BECMG 2721/2723 23010KT -RA SCT020 BKN030 OVC050 BECMG 2803/2805 VRB05KT =

Estación EZEIZA

27 - 11:00               TAF SAEZ 271100Z 2712/2812 05005KT CAVOK TX28/2718Z TN20/2809Z PROB30 2714/2718 8000 SHRA FEW040TCU SCT050 BECMG 2720/2722 07015KT 9999 FEW030 SCT050 BECMG 2803/2805 14008KT BECMG 2808/2810 09010KT 9999 SCT030 BECMG 2810/2812 04010KT CAVOK =

Estación FORMOSA

27 - 11:00               TAF SARF 271100Z 2712/2812 20005KT 9999 FEW025 BKN090 TX29/2719Z TN20/2809Z BECMG 2714/2716 5000 RA SCT015 OVC050 PROB30 2717/2720 4000 TSRA BKN015 FEW050CB BKN050 BECMG 2722/2724 8000 -RA BKN012 OVC050 =

Estación IGUAZU/CATARATAS

27 - 11:00               TAF SARI 271100Z 2712/2812 05005KT CAVOK TX32/2719Z TN18/2809Z =

Estación JUJUY

27 - 11:00               TAF SASJ 271100Z 2712/2812 18010KT 5000 BR SCT010 BKN020 TX22/2718Z TN15/2810Z BECMG 2713/2715 07010KT 9999 NSW SCT012 BKN025 PROB40 2718/2721 07010KT 5000 TSRA BKN012 OVC040 FEW045CB BECMG 2806/2809 VRB03KT 0300 DZ FG OVC001 =

Estación LA RIOJA

27 - 11:00               TAF SANL 271100Z 2712/2812 36005KT 9999 BKN045 TX30/2719Z TN18/2810Z BECMG 2717/2720 05005KT 9999 SCT040 BECMG 2800/2803 18005KT PROB40 TEMPO 5000 RADZ BKN015 BKN045 =

Estación MAR DEL PLATA

27 - 11:00               TAF SAZM 271100Z 2712/2812 02006KT 0300 FG OVC002 TX24/2718Z TN18/2810Z BECMG 2713/2715 02015KT 5000 BR SCT005 SCT010 BECMG 2716/2718 05015G25KT 9999 SCT020 BECMG 2800/2802 36010KT 7000 BR FEW010 PROB30 TEMPO 2806/2810 0500 FG OVC008 =

Estación MENDOZA

27 - 11:00               TAF SAME 271100Z 2712/2812 05005KT CAVOK TX29/2720Z TN18/2810Z =

Estación NEUQUEN

27 - 11:00               TAF SAZN 271100Z 2712/2812 VRB05KT CAVOK TX30/2719Z TN10/2810Z BECMG 2713/2714 25010KT TEMPO 2721/2801 25015G25KT =

Estación PARANA

27 - 11:00               TAF SAAP 271100Z 2712/2812 29005KT 5000 -RA OVC050 TX23/2718Z TN19/2809Z BECMG 2713/2715 3000 TSRA SCT010 OVC040 BECMG 2718/2721 02005KT 7000 SHRA SCT010 OVC040 BECMG 2722/2800 9999 SCT030 BKN050 BECMG 2809/2811 9999 SCT010 SCT040 =

Estación POSADAS

27 - 11:00               TAF SARP 271100Z 2712/2812 09005KT CAVOK TX34/2719Z TN21/2809Z =

Estación RESISTENCIA

27 - 11:00               TAF SARE 271100Z 2712/2812 20005KT 9999 FEW025 BKN090 TX28/2719Z TN19/2809Z BECMG 2714/2716 5000 RA SCT015 OVC050 PROB40 2717/2720 4000 TSRA BKN015 FEW050CB BKN050 BECMG 2722/2724 8000 -RA BKN012 OVC050 =

Estación RIO CUARTO

27 - 11:00               TAF SAOC 271100Z 2712/2812 02005KT 2500 BR SCT012 TX22/2718Z TN13/2810Z BECMG 2713/2715 02010KT 9999 NSW SCT020 BECMG 2718/2721 5000 TSRA BKN012 BKN040 FEW045CB TEMPO 2806/2809 36005KT 0500 BCFG BKN002 =

Estación RIO GALLEGOS

27 - 11:00               TAF SAWG 271100Z 2712/2812 27010KT 9999 FEW030 SCT070 TX13/2719Z TN05/2810Z BECMG 2718/2720 VRB10KT RA BKN030 OVC050 BECMG 2800/2802 28010KT SCT010 BKN025 =

Estacion RIO GRANDE

27 - 11:00               TAF SAWE 271100Z 2712/2812 27015KT 9999 FEW035 SCT090 TX12/2719Z TN04/2810Z BECMG 2719/2722 25005KT FEW020 SCT060 =

Estacion ROSARIO

27 - 11:00               TAF SAAR 271100Z 2712/2812 VRB05KT CAVOK TX27/2719Z TN19/2810Z TEMPO 2712/2716 5000 TSRA SCT025 FEW040CB BKN100 =

Estacion SALTA

27 - 11:00               TAF SASA 271100Z 2712/2812 VRB03KT 5000 DZ/BR BKN005 BKN020 TX22/2718Z TN13/2810Z BECMG 2713/2715 05010KT 9999 NSW SCT010 BKN025 PROB40 2721/2800 07010KT 5000 TSRA BKN015 OVC040 FEW045CB BECMG 2806/2809 VRB03KT 0300 DZ FG OVC001 =

Estacion SAN FERNANDO

27 - 11:00               TAF SADF 271100Z 2712/2812 05010KT 9999 FEW040TCU BKN100 TX28/2718Z TN21/2810Z BECMG 2712/2714 32010KT PROB30 TEMPO 2713/2718 8000 SHRA BKN020 FEW040TCU BKN100 BECMG 2721/2723 09015KT TEMPO 2801/2805 5000 RA BKN015 FEW040TCU OVC050 BECMG 2810/2812 05010KT 9999 SCT020 SCT100 =

Estación SAN JUAN

27 - 11:00               TAF SANU 271100Z 2712/2812 05005KT CAVOK TX30/2720Z TN16/2810Z BECMG 2800/2802 18005KT =

Estación SAN LUIS

27 - 11:00               TAF SAOU 271100Z 2712/2812 36010KT CAVOK TX26/2719Z TN15/2809Z =

Estación SAN RAFAEL

27 - 11:00               TAF SAMR 271100Z 2712/2812 05010KT CAVOK TX28/2720Z TN15/2810Z =

Estación SANTA ROSA

27 - 11:00               TAF SAZR 271100Z 2712/2812 34005KT 2000 BR BKN010 BKN025 TX26/2718Z TN17/2809Z BECMG 2715/2717 34010KT 9999 SCT010 BKN030 BECMG 2720/2722 CAVOK PROB30 2808/2811 2000 BR SCT008 BKN020 =

Estación SANTIAGO DEL ESTERO

27 - 11:00               TAF SANE 271100Z 2712/2812 VRB03KT 5000 BR BKN020 TX27/2718Z TN19/2810Z BECMG 2713/2716 9999 NSW BKN020 PROB40 2718/2721 5000 TSRA BKN020 OVC040 FEW045CB BECMG 2806/2809 05005KT 0500 DZ FG BKN005 OVC010 =

Estación SAUCE VIEJO

27 - 11:00               TAF SAAV 271100Z 2712/2812 05005KT 8000 -RA BKN006 OVC050 TX23/2718Z TN19/2809Z BECMG 2713/2715 5000 TSRA SCT008 OVC040 BECMG 2718/2721 02005KT 7000 SHRA SCT010 OVC040 BECMG 2722/2800 9999 SCT030 BKN050 BECMG 2809/2811 9999 SCT010 SCT040 =

Estación TERMAS DE RIO HONDO

27 - 11:00               TAF SANR 271100Z 2712/2812 NIL =

Estación TRELEW

27 - 11:00               TAF SAVT 271100Z 2712/2812 25005KT CAVOK TX26/2719Z TN17/2810Z BECMG 2718/2720 07008KT BECMG 2803/2805 22010KT =

Estación TUCUMAN

27 - 11:00               TAF SANT 270500Z 2706/2806 VRB03KT 5000 BR SCT020 TX22/2718Z TN16/2810Z BECMG 2714/2717 16005KT 9999 NSW BKN025 PROB40 2718/2721 5000 TSRA BKN012 OVC035 FEW040CB BECMG 2803/2806 VRB03KT 0100 DZ FG OVC001 =

Estación USHUAIA

27 - 11:00               TAF SAWH 271100Z 2712/2812 27010KT 9999 FEW040 TX10/2718Z TN04/2810Z BECMG 2802/2804 34010KT BKN050 =

Estación VIEDMA

27 - 11:00               TAF SAVV 271100Z 2712/2812 32010KT CAVOK TX30/2719Z TN20/2810Z BECMG 2715/2717 34003KT BECMG 2721/2723 02008KT BECMG 2806/2808 VRB08KT =